Time;durP1;ratioP1;P1;durP2;ratioP2;P2;SDS_P1;SDS_P2;PMS_P1;PMS_P2;Temp;Humidity;BMP_temperature;BMP_pressure;BME280_temperature;BME280_humidity;BME280_pressure;Samples;Min_cycle;Max_cycle;Signal;HPM_P1;HPM_P2
2024/02/06 00:00:04;;;;;;;1.97;1.00;;;;;;;7.62;91.27;99745.72;123298;1102;104338;-79
2024/02/06 00:02:39;;;;;;;2.47;1.20;;;;;;;7.63;91.90;99739.67;123239;1102;104337;-78
2024/02/06 00:05:11;;;;;;;2.70;1.33;;;;;;;7.64;91.71;99744.08;123173;1105;104453;-78
2024/02/06 00:07:42;;;;;;;2.67;1.33;;;;;;;7.65;91.69;99738.91;122968;1102;104453;-78
2024/02/06 00:10:13;;;;;;;4.45;1.50;;;;;;;7.68;91.53;99733.80;122979;1102;104531;-77
2024/02/06 00:12:44;;;;;;;2.33;1.40;;;;;;;7.69;91.54;99734.67;122993;1105;104287;-78
2024/02/06 00:15:16;;;;;;;1.53;1.30;;;;;;;7.69;92.22;99759.05;122992;1105;104281;-77
2024/02/06 00:17:47;;;;;;;1.45;1.10;;;;;;;7.69;92.15;99748.61;123167;1104;104402;-78
2024/02/06 00:20:19;;;;;;;1.27;1.00;;;;;;;7.69;92.46;99746.00;122738;1102;104481;-77
2024/02/06 00:22:51;;;;;;;4.17;1.30;;;;;;;7.70;91.86;99752.13;122904;1103;104326;-77
2024/02/06 00:25:22;;;;;;;2.90;1.50;;;;;;;7.69;92.12;99758.17;122865;1105;104207;-78
2024/02/06 00:27:53;;;;;;;1.57;1.10;;;;;;;7.69;92.63;99758.17;122838;1105;104232;-77
2024/02/06 00:30:24;;;;;;;2.53;1.50;;;;;;;7.69;92.55;99758.17;123010;1102;104479;-77
2024/02/06 00:32:55;;;;;;;1.60;1.20;;;;;;;7.69;92.90;99761.66;123149;1102;104296;-79
2024/02/06 00:35:29;;;;;;;1.50;1.13;;;;;;;7.68;92.73;99761.61;122892;1102;104364;-78
2024/02/06 00:38:00;;;;;;;1.77;1.35;;;;;;;7.70;92.83;99754.73;122902;1105;104235;-79
2024/02/06 00:40:31;;;;;;;3.70;1.37;;;;;;;7.69;92.75;99751.22;122924;1102;104268;-78
2024/02/06 00:43:03;;;;;;;2.77;1.60;;;;;;;7.68;92.35;99743.33;122996;1102;104319;-77
2024/02/06 00:45:34;;;;;;;1.57;1.30;;;;;;;7.67;93.05;99741.58;122884;1105;104293;-77
2024/02/06 00:48:07;;;;;;;3.03;1.53;;;;;;;7.66;92.70;99742.40;122955;1106;104258;-78
2024/02/06 00:50:39;;;;;;;3.63;1.60;;;;;;;7.65;93.00;99751.97;123174;1102;104229;-78
2024/02/06 00:53:10;;;;;;;2.47;1.60;;;;;;;7.66;93.13;99742.40;123059;1105;104360;-78
2024/02/06 00:55:41;;;;;;;1.80;1.45;;;;;;;7.64;92.75;99752.79;123192;1102;104201;-78
2024/02/06 00:58:12;;;;;;;1.73;1.30;;;;;;;7.63;92.85;99739.67;123078;1105;104258;-78
2024/02/06 01:00:43;;;;;;;4.10;1.50;;;;;;;7.62;93.10;99745.72;123095;1105;104341;-77
2024/02/06 01:03:16;;;;;;;1.60;1.50;;;;;;;7.60;93.48;99752.62;123017;1105;104844;-78
2024/02/06 01:05:47;;;;;;;3.40;1.47;;;;;;;7.57;93.17;99758.61;122996;1102;104344;-78
2024/02/06 01:08:19;;;;;;;2.57;1.40;;;;;;;7.55;93.36;99750.73;123035;1102;104280;-77
2024/02/06 01:10:50;;;;;;;2.40;1.37;;;;;;;7.56;93.06;99743.80;122883;1102;104408;-78
2024/02/06 01:13:21;;;;;;;2.83;1.67;;;;;;;7.54;93.17;99746.36;123010;1102;104348;-79
2024/02/06 01:15:52;;;;;;;3.10;1.70;;;;;;;7.54;93.51;99745.45;123086;1102;104329;-78
2024/02/06 01:18:24;;;;;;;1.65;1.20;;;;;;;7.54;93.43;99748.97;123076;1102;104277;-78
2024/02/06 01:20:55;;;;;;;3.07;1.63;;;;;;;7.55;94.04;99750.73;123015;1102;104246;-78
2024/02/06 01:23:27;;;;;;;4.05;2.10;;;;;;;7.60;93.60;99718.68;122843;1102;104284;-77
2024/02/06 01:25:58;;;;;;;5.07;2.10;;;;;;;7.61;93.60;99721.34;122748;1102;104353;-77
2024/02/06 01:28:29;;;;;;;6.17;2.33;;;;;;;7.63;94.02;99737.06;122784;1102;104392;-78
2024/02/06 01:31:00;;;;;;;5.50;2.40;;;;;;;7.62;94.34;99741.41;122779;1101;104389;-78
2024/02/06 01:33:31;;;;;;;2.73;2.20;;;;;;;7.64;94.19;99750.17;122706;1105;104252;-78
2024/02/06 01:36:03;;;;;;;4.55;2.30;;;;;;;7.63;94.19;99756.22;122889;1102;104367;-77
2024/02/06 01:38:34;;;;;;;3.03;2.10;;;;;;;7.63;93.99;99752.73;122877;1103;104313;-78
2024/02/06 01:41:06;;;;;;;3.65;2.45;;;;;;;7.64;94.30;99744.95;122861;1102;104251;-78
2024/02/06 01:43:38;;;;;;;3.70;2.33;;;;;;;7.64;94.55;99742.34;122833;1102;105716;-78
2024/02/06 01:46:09;;;;;;;3.50;2.50;;;;;;;7.63;93.94;99737.95;122752;1105;104230;-77
2024/02/06 01:48:41;;;;;;;6.63;2.67;;;;;;;7.63;94.42;99739.67;122797;1103;104473;-78
2024/02/06 01:51:13;;;;;;;5.13;2.20;;;;;;;7.61;94.31;99747.45;122776;1105;104393;-77
2024/02/06 01:53:44;;;;;;;3.53;2.13;;;;;;;7.58;94.78;99733.42;122848;1103;104310;-77
2024/02/06 01:56:16;;;;;;;4.35;2.15;;;;;;;7.57;95.16;99716.84;122732;1105;104389;-77
2024/02/06 01:58:47;;;;;;;5.50;2.60;;;;;;;7.56;94.41;99720.30;122767;1105;104232;-78
2024/02/06 02:01:19;;;;;;;3.43;2.23;;;;;;;7.56;94.95;99729.02;122798;1105;104414;-78
2024/02/06 02:03:53;;;;;;;3.43;2.20;;;;;;;7.57;95.28;99748.17;122803;1102;104300;-78
2024/02/06 02:06:27;;;;;;;4.77;2.37;;;;;;;7.59;95.10;99750.84;122778;1102;104373;-78
2024/02/06 02:08:58;;;;;;;3.17;2.22;;;;;;;7.59;95.12;99724.73;122767;1102;104392;-77
2024/02/06 02:11:30;;;;;;;4.00;2.60;;;;;;;7.59;95.47;99714.28;122791;1102;104233;-78
2024/02/06 02:14:01;;;;;;;4.60;2.60;;;;;;;7.55;95.34;99737.67;122709;1102;104366;-77
2024/02/06 02:16:32;;;;;;;4.83;2.70;;;;;;;7.54;95.23;99728.09;122824;1105;104249;-77
2024/02/06 02:19:03;;;;;;;5.77;2.50;;;;;;;7.54;95.66;99724.56;122797;1102;104252;-78
2024/02/06 02:21:35;;;;;;;7.90;3.30;;;;;;;7.53;95.16;99725.42;122834;1103;104390;-76
2024/02/06 02:24:07;;;;;;;5.23;3.17;;;;;;;7.52;95.56;99729.73;122901;1105;104325;-79
2024/02/06 02:26:39;;;;;;;4.87;2.60;;;;;;;7.54;95.69;99740.23;122942;1102;104264;-77
2024/02/06 02:29:11;;;;;;;3.20;2.47;;;;;;;7.55;95.56;99726.35;123082;1102;104294;-77
2024/02/06 02:31:43;;;;;;;4.83;2.40;;;;;;;7.58;95.76;99721.23;123130;1103;104319;-77
2024/02/06 02:34:14;;;;;;;9.13;2.73;;;;;;;7.62;95.93;99732.67;123235;1102;104360;-78
2024/02/06 02:36:46;;;;;;;6.60;3.20;;;;;;;7.66;95.78;99729.34;123226;1105;104385;-79
2024/02/06 02:39:17;;;;;;;6.67;2.80;;;;;;;7.68;95.39;99728.57;123242;1102;104326;-77
2024/02/06 02:41:48;;;;;;;6.03;3.20;;;;;;;7.70;95.39;99733.84;123264;1102;104229;-78
2024/02/06 02:44:20;;;;;;;8.37;3.67;;;;;;;7.71;95.77;99735.60;123336;1102;104252;-79
2024/02/06 02:46:51;;;;;;;5.03;3.00;;;;;;;7.74;96.00;99728.79;123209;1101;104278;-78
2024/02/06 02:49:22;;;;;;;4.30;2.80;;;;;;;7.74;95.39;99727.88;123216;1102;104200;-76
2024/02/06 02:51:54;;;;;;;4.65;2.85;;;;;;;7.74;95.99;99731.40;123168;1102;104354;-78
2024/02/06 02:54:27;;;;;;;4.10;2.57;;;;;;;7.74;95.75;99736.63;123106;1105;104334;-77
2024/02/06 02:56:59;;;;;;;7.80;2.93;;;;;;;7.74;96.38;99744.45;123258;1102;104367;-77
2024/02/06 02:59:32;;;;;;;4.93;2.70;;;;;;;7.74;96.10;99730.48;123348;1102;104323;-77
2024/02/06 03:02:04;;;;;;;5.03;2.70;;;;;;;7.76;95.85;99738.38;123319;1105;104281;-77
2024/02/06 03:04:35;;;;;;;4.70;2.73;;;;;;;7.77;96.11;99729.72;123265;1102;104281;-77
2024/02/06 03:07:07;;;;;;;5.30;2.80;;;;;;;7.78;96.55;99721.06;123064;1102;104654;-78
2024/02/06 03:09:38;;;;;;;4.85;2.80;;;;;;;7.76;96.35;99721.00;123062;1102;104252;-77
2024/02/06 03:12:10;;;;;;;4.83;2.80;;;;;;;7.79;96.03;99717.59;122968;1102;104249;-78
2024/02/06 03:14:41;;;;;;;4.47;2.83;;;;;;;7.80;96.73;99716.77;123141;1102;104283;-78
2024/02/06 03:17:12;;;;;;;3.47;2.47;;;;;;;7.81;96.42;99710.72;123033;1102;104329;-78
2024/02/06 03:19:43;;;;;;;4.37;2.57;;;;;;;7.80;96.66;99704.58;123270;1105;104373;-77
2024/02/06 03:22:14;;;;;;;3.53;2.30;;;;;;;7.82;96.36;99707.25;123417;1105;104259;-78
2024/02/06 03:24:45;;;;;;;3.03;2.20;;;;;;;7.81;96.08;99708.98;123154;1102;104249;-78
2024/02/06 03:27:17;;;;;;;4.87;2.37;;;;;;;7.82;96.45;99702.02;123377;1102;104517;-78
2024/02/06 03:29:49;;;;;;;5.67;2.43;;;;;;;7.84;96.86;99689.92;123309;1102;104322;-78
2024/02/06 03:32:20;;;;;;;3.13;2.07;;;;;;;7.84;97.05;99684.70;123305;1102;104443;-78
2024/02/06 03:34:51;;;;;;;3.53;1.90;;;;;;;7.82;96.94;99712.47;123461;1102;104360;-78
2024/02/06 03:37:22;;;;;;;5.23;2.27;;;;;;;7.79;96.35;99713.27;123251;1105;104265;-80
2024/02/06 03:39:54;;;;;;;4.63;2.47;;;;;;;7.78;96.14;99731.50;123279;1105;104229;-78
2024/02/06 03:42:25;;;;;;;2.83;2.10;;;;;;;7.76;96.69;99741.90;123270;1105;104315;-77
2024/02/06 03:44:56;;;;;;;2.90;2.13;;;;;;;7.77;96.80;99727.98;123329;1102;104312;-78
2024/02/06 03:47:27;;;;;;;4.20;2.40;;;;;;;7.78;97.21;99728.89;123343;1105;104251;-78
2024/02/06 03:50:01;;;;;;;4.97;2.87;;;;;;;7.79;97.29;99726.33;123199;1102;104326;-79
2024/02/06 03:52:32;;;;;;;2.90;2.23;;;;;;;7.78;97.28;99731.50;123371;1102;104357;-78
2024/02/06 03:55:03;;;;;;;4.63;2.40;;;;;;;7.77;96.90;99741.04;123274;1102;104326;-78
2024/02/06 03:57:35;;;;;;;5.63;2.73;;;;;;;7.75;96.78;99740.11;123408;1102;104310;-78
2024/02/06 04:00:08;;;;;;;5.73;2.83;;;;;;;7.74;96.64;99741.84;123400;1105;104315;-79
2024/02/06 04:02:40;;;;;;;7.17;2.98;;;;;;;7.76;96.82;99733.16;123672;1105;104259;-78
2024/02/06 04:05:11;;;;;;;5.00;2.83;;;;;;;7.77;96.99;99727.11;123364;1102;104280;-78
2024/02/06 04:07:42;;;;;;;4.17;2.50;;;;;;;7.76;97.13;99718.39;123438;1105;104379;-78
2024/02/06 04:10:14;;;;;;;4.63;2.47;;;;;;;7.74;97.19;99704.37;123400;1105;104901;-77
2024/02/06 04:12:45;;;;;;;5.37;2.60;;;;;;;7.69;96.90;99706.83;123464;1102;104176;-79
2024/02/06 04:15:17;;;;;;;2.87;2.40;;;;;;;7.68;96.83;99711.99;123664;1102;104322;-79
2024/02/06 04:17:48;;;;;;;5.07;2.50;;;;;;;7.70;97.17;99723.41;123749;1102;104325;-78
2024/02/06 04:20:19;;;;;;;5.77;2.83;;;;;;;7.69;97.26;99719.88;123500;1105;104278;-78
2024/02/06 04:22:50;;;;;;;6.33;3.43;;;;;;;7.68;97.03;99720.73;123724;1105;104402;-78
2024/02/06 04:25:21;;;;;;;4.47;2.63;;;;;;;7.68;97.26;99723.35;123800;1104;104363;-79
2024/02/06 04:27:53;;;;;;;4.37;2.63;;;;;;;7.68;97.45;99731.19;123552;1105;104280;-78
2024/02/06 04:30:24;;;;;;;4.90;3.00;;;;;;;7.67;97.63;99726.78;123734;1105;104290;-78
2024/02/06 04:32:56;;;;;;;6.33;3.13;;;;;;;7.68;97.28;99718.13;123804;1105;104234;-78
2024/02/06 04:35:27;;;;;;;4.10;2.67;;;;;;;7.70;97.12;99713.84;123754;1105;104232;-78
2024/02/06 04:37:58;;;;;;;3.93;2.80;;;;;;;7.69;97.22;99717.27;123306;1105;104290;-77
2024/02/06 04:40:30;;;;;;;4.40;2.80;;;;;;;7.68;96.97;99720.73;123458;1103;104286;-78
2024/02/06 04:43:02;;;;;;;4.87;2.73;;;;;;;7.68;97.18;99727.66;123768;1105;104248;-78
2024/02/06 04:45:33;;;;;;;5.57;2.70;;;;;;;7.69;97.39;99732.06;123483;1105;104434;-77
2024/02/06 04:48:04;;;;;;;4.90;2.90;;;;;;;7.70;97.91;99736.46;123561;1103;104252;-78
2024/02/06 04:50:36;;;;;;;5.63;2.93;;;;;;;7.69;97.42;99751.22;123656;1105;104187;-77
2024/02/06 04:53:07;;;;;;;4.73;3.10;;;;;;;7.70;97.32;99749.52;123554;1105;104210;-78
2024/02/06 04:55:38;;;;;;;6.13;3.20;;;;;;;7.72;98.06;99726.95;123734;1105;104393;-77
2024/02/06 04:58:10;;;;;;;6.03;3.00;;;;;;;7.70;97.53;99733.84;123251;1105;104236;-77
2024/02/06 05:00:41;;;;;;;7.20;3.70;;;;;;;7.70;97.77;99739.95;123242;1103;104354;-78
2024/02/06 05:03:12;;;;;;;4.73;2.90;;;;;;;7.69;97.49;99732.94;123366;1104;104309;-78
2024/02/06 05:05:44;;;;;;;6.05;3.30;;;;;;;7.67;98.10;99732.00;123287;1105;104297;-77
2024/02/06 05:08:15;;;;;;;7.93;3.67;;;;;;;7.67;97.95;99731.12;123449;1104;104267;-78
2024/02/06 05:10:47;;;;;;;17.27;6.20;;;;;;;7.68;97.65;99725.05;123462;1106;105118;-78
2024/02/06 05:13:18;;;;;;;13.65;6.15;;;;;;;7.63;98.17;99735.33;123206;1105;104306;-78
2024/02/06 05:15:49;;;;;;;12.60;5.43;;;;;;;7.59;97.61;99740.39;123141;1105;104281;-77
2024/02/06 05:18:20;;;;;;;18.57;7.63;;;;;;;7.60;97.79;99737.84;123289;1102;104252;-78
2024/02/06 05:20:52;;;;;;;13.93;5.93;;;;;;;7.59;97.77;99735.17;122963;1103;104251;-77
2024/02/06 05:23:23;;;;;;;15.03;6.13;;;;;;;7.55;98.18;99739.41;123138;1102;104277;-77
2024/02/06 05:25:54;;;;;;;14.00;5.80;;;;;;;7.54;98.20;99738.53;123160;1102;104312;-78
2024/02/06 05:28:25;;;;;;;11.77;5.57;;;;;;;7.52;98.34;99741.91;123174;1102;104261;-77
2024/02/06 05:30:57;;;;;;;13.37;5.53;;;;;;;7.51;98.24;99743.64;123383;1102;104290;-77
2024/02/06 05:33:29;;;;;;;10.27;5.07;;;;;;;7.51;98.00;99729.67;123200;1102;104265;-77
2024/02/06 05:36:00;;;;;;;13.17;5.13;;;;;;;7.50;98.12;99752.30;123588;1102;104315;-78
2024/02/06 05:38:32;;;;;;;11.07;4.97;;;;;;;7.50;97.87;99735.75;124091;1102;107026;-78
2024/02/06 05:41:03;;;;;;;13.07;4.90;;;;;;;7.53;98.23;99741.96;124005;1105;104242;-78
2024/02/06 05:43:34;;;;;;;12.80;5.53;;;;;;;7.56;98.35;99741.19;124010;1103;104415;-77
2024/02/06 05:46:05;;;;;;;9.23;4.53;;;;;;;7.59;98.77;99735.17;124134;1105;104255;-77
2024/02/06 05:48:39;;;;;;;9.50;4.40;;;;;;;7.60;98.26;99743.05;124540;1102;104214;-77
2024/02/06 05:51:10;;;;;;;;;;;;;;;7.60;98.91;99737.84;124661;1102;104291;-77
2024/02/06 05:53:41;;;;;;;11.43;4.70;;;;;;;7.59;98.23;99745.61;124170;1102;104227;-78
2024/02/06 05:56:12;;;;;;;13.87;5.57;;;;;;;7.56;98.78;99738.58;123731;1101;104310;-77
2024/02/06 05:58:43;;;;;;;11.33;5.20;;;;;;;7.59;99.02;99745.61;123923;1102;105675;-78
2024/02/06 06:01:15;;;;;;;14.73;5.60;;;;;;;7.59;98.73;99745.61;123963;1102;104261;-77
2024/02/06 06:03:47;;;;;;;12.37;5.60;;;;;;;7.62;98.63;99730.06;123736;1102;104312;-77
2024/02/06 06:06:19;;;;;;;10.63;5.20;;;;;;;7.65;99.02;99732.78;124099;1102;104255;-77
2024/02/06 06:08:50;;;;;;;11.57;5.10;;;;;;;7.65;98.54;99719.72;123934;1102;104214;-77
2024/02/06 06:11:22;;;;;;;10.85;5.30;;;;;;;7.67;98.49;99726.78;123980;1102;104405;-78
2024/02/06 06:13:53;;;;;;;14.40;5.67;;;;;;;7.71;99.07;99739.12;124413;1101;104309;-77
2024/02/06 06:16:24;;;;;;;11.43;5.43;;;;;;;7.77;99.25;99746.27;124139;1102;104306;-77
2024/02/06 06:18:55;;;;;;;11.60;5.07;;;;;;;7.80;98.84;99735.92;123964;1102;104337;-77
2024/02/06 06:21:27;;;;;;;10.47;4.93;;;;;;;7.85;99.00;99736.99;123946;1102;104204;-77
2024/02/06 06:23:58;;;;;;;9.80;5.00;;;;;;;7.88;98.92;99734.48;124130;1105;102178;-77
2024/02/06 06:26:29;;;;;;;8.70;4.70;;;;;;;7.95;98.76;99739.89;124073;1102;104272;-77
2024/02/06 06:29:01;;;;;;;10.90;4.83;;;;;;;8.00;99.03;99733.12;124020;1102;104236;-77
2024/02/06 06:31:32;;;;;;;10.50;5.20;;;;;;;8.04;98.89;99734.98;124189;1102;104329;-76
2024/02/06 06:34:04;;;;;;;8.00;4.40;;;;;;;8.06;98.96;99730.71;123645;1105;104207;-77
2024/02/06 06:36:36;;;;;;;10.27;4.70;;;;;;;8.09;99.41;99730.81;123723;1102;104233;-77
2024/02/06 06:39:10;;;;;;;11.47;4.70;;;;;;;8.10;99.14;99729.95;123936;1102;104254;-76
2024/02/06 06:41:45;;;;;;;10.20;4.50;;;;;;;8.12;99.15;99733.53;123831;1102;104280;-77
2024/02/06 06:44:20;;;;;;;8.13;3.87;;;;;;;8.14;98.94;99730.97;123501;1102;104357;-76
2024/02/06 06:46:51;;;;;;;9.37;4.17;;;;;;;8.16;99.20;99740.61;123901;1106;104357;-76
2024/02/06 06:49:23;;;;;;;7.97;4.20;;;;;;;8.19;99.02;99738.10;123829;1103;104255;-77
2024/02/06 06:51:55;;;;;;;7.00;3.77;;;;;;;8.22;98.58;99740.81;123953;1102;104357;-76
2024/02/06 06:54:26;;;;;;;7.93;4.13;;;;;;;8.28;99.17;99745.38;125589;1102;102747;-74
2024/02/06 06:56:57;;;;;;;8.53;4.17;;;;;;;8.31;99.09;99737.62;123633;1102;104328;-74
2024/02/06 06:59:28;;;;;;;8.37;4.50;;;;;;;8.36;99.17;99736.04;123667;1102;104252;-75
2024/02/06 07:02:01;;;;;;;7.80;3.95;;;;;;;8.39;98.54;99738.75;124255;1102;104262;-77
2024/02/06 07:04:34;;;;;;;10.47;4.23;;;;;;;8.43;99.27;99737.12;123956;1105;104229;-76
2024/02/06 07:07:06;;;;;;;9.00;3.93;;;;;;;8.46;99.41;99737.25;123648;1102;104336;-76
2024/02/06 07:09:37;;;;;;;9.63;3.60;;;;;;;8.49;99.38;99739.96;124208;1102;104316;-77
2024/02/06 07:12:09;;;;;;;9.13;3.90;;;;;;;8.49;99.24;99747.80;123681;1105;104280;-76
2024/02/06 07:14:40;;;;;;;7.63;3.83;;;;;;;8.51;98.82;99748.77;123604;1102;104255;-76
2024/02/06 07:17:11;;;;;;;7.10;3.65;;;;;;;8.53;98.60;99749.69;124022;1102;104315;-76
2024/02/06 07:19:50;;;;;;;8.37;3.73;;;;;;;8.58;98.72;99748.09;123730;1105;104370;-75
2024/02/06 07:22:21;;;;;;;7.70;3.90;;;;;;;8.63;99.31;99756.09;123876;1101;104249;-75
2024/02/06 07:25:05;;;;;;;10.57;4.70;;;;;;;8.66;99.38;99748.34;123841;1105;104315;-75
2024/02/06 07:27:39;;;;;;;7.40;3.92;;;;;;;8.75;98.82;99752.98;124106;1105;104205;-75
2024/02/06 07:30:14;;;;;;;8.17;4.30;;;;;;;8.83;99.35;99746.25;123997;1102;104300;-76
2024/02/06 07:32:46;;;;;;;9.00;3.70;;;;;;;8.90;99.14;99752.58;123933;1102;104249;-76
2024/02/06 07:35:19;;;;;;;6.73;4.20;;;;;;;8.95;98.96;99745.75;123992;1105;104409;-75
2024/02/06 07:37:53;;;;;;;10.37;5.23;;;;;;;8.99;99.07;99745.89;123992;1105;104213;-75
2024/02/06 07:40:27;;;;;;;8.08;4.25;;;;;;;9.03;99.07;99751.21;124174;1102;104389;-75
2024/02/06 07:43:00;;;;;;;9.33;4.73;;;;;;;9.00;99.02;99747.64;123864;1105;104376;-74
2024/02/06 07:45:31;;;;;;;9.43;4.37;;;;;;;9.02;99.18;99752.05;124043;1105;104217;-75
2024/02/06 07:48:03;;;;;;;8.13;4.23;;;;;;;9.06;98.39;99743.45;123979;1102;104255;-75
2024/02/06 07:50:34;;;;;;;6.40;3.80;;;;;;;9.09;98.99;99739.19;124105;1102;104172;-75
2024/02/06 07:53:06;;;;;;;7.30;3.60;;;;;;;9.14;98.17;99742.81;124077;1102;104252;-75
2024/02/06 07:55:38;;;;;;;8.03;3.27;;;;;;;9.21;98.55;99737.77;123800;1105;103824;-74
2024/02/06 07:58:11;;;;;;;6.83;3.50;;;;;;;9.27;98.92;99730.99;124409;1103;104255;-74
2024/02/06 08:00:43;;;;;;;6.05;3.15;;;;;;;9.31;99.14;99743.30;124422;1105;104060;-75
2024/02/06 08:03:14;;;;;;;6.93;3.40;;;;;;;9.28;98.39;99753.69;123891;1102;104271;-74
2024/02/06 08:05:53;;;;;;;6.70;2.80;;;;;;;9.25;97.96;99750.11;123903;1102;102249;-75
2024/02/06 08:08:26;;;;;;;7.03;3.20;;;;;;;9.25;98.19;99757.96;124051;1105;104331;-75
2024/02/06 08:10:58;;;;;;;4.90;3.03;;;;;;;9.28;98.61;99765.91;124118;1105;104395;-75
2024/02/06 08:13:32;;;;;;;7.30;2.97;;;;;;;9.35;97.93;99763.51;124570;1102;104392;-75
2024/02/06 08:16:03;;;;;;;6.20;3.20;;;;;;;9.46;98.80;99774.30;123819;1102;104313;-75
2024/02/06 08:18:37;;;;;;;5.77;3.40;;;;;;;9.56;98.68;99764.08;123872;1103;103257;-76
2024/02/06 08:21:16;;;;;;;7.73;3.57;;;;;;;9.63;98.63;99774.77;124018;1102;102699;-75
2024/02/06 08:24:05;;;;;;;9.20;3.43;;;;;;;9.71;97.88;99760.14;123910;1102;104182;-75
2024/02/06 08:26:38;;;;;;;7.95;3.10;;;;;;;9.76;97.66;99781.23;123838;1102;104188;-75
2024/02/06 08:29:12;;;;;;;6.70;3.17;;;;;;;9.78;97.50;99789.13;123894;1102;104236;-76
2024/02/06 08:31:50;;;;;;;11.63;3.90;;;;;;;9.80;97.58;99776.95;123818;1102;104257;-76
2024/02/06 08:34:22;;;;;;;7.50;3.33;;;;;;;9.86;97.76;99782.36;123888;1103;104309;-75
2024/02/06 08:36:57;;;;;;;7.03;3.50;;;;;;;9.83;98.03;99777.03;123815;1102;104178;-75
2024/02/06 08:39:29;;;;;;;11.35;4.05;;;;;;;9.91;97.78;99791.25;123937;1105;104170;-74
2024/02/06 08:42:01;;;;;;;8.87;3.57;;;;;;;9.95;97.69;99793.09;123653;1102;105547;-75
2024/02/06 08:44:32;;;;;;;9.27;3.40;;;;;;;9.99;97.87;99804.56;123949;1102;104246;-75
2024/02/06 08:47:03;;;;;;;8.40;3.50;;;;;;;9.99;97.13;99805.44;123931;1103;104239;-75
2024/02/06 08:49:34;;;;;;;6.60;3.50;;;;;;;10.00;97.45;99796.73;123874;1105;101921;-75
2024/02/06 08:52:06;;;;;;;10.03;3.60;;;;;;;10.05;97.60;99797.73;123857;1102;104258;-76
2024/02/06 08:54:37;;;;;;;5.77;3.17;;;;;;;10.16;97.33;99799.73;123928;1103;104172;-76
2024/02/06 08:57:09;;;;;;;6.93;3.20;;;;;;;10.19;96.60;99797.20;124059;1104;104181;-76
2024/02/06 08:59:42;;;;;;;6.10;3.00;;;;;;;10.19;94.31;99805.97;123899;1102;104175;-76
2024/02/06 09:02:13;;;;;;;6.53;3.23;;;;;;;10.20;96.31;99801.60;123780;1103;104502;-76
2024/02/06 09:04:44;;;;;;;12.20;3.97;;;;;;;10.23;96.25;99806.92;123837;1102;104692;-75
2024/02/06 09:07:16;;;;;;;7.93;3.40;;;;;;;10.25;96.27;99802.59;123615;1102;104364;-75
2024/02/06 09:09:48;;;;;;;8.77;3.30;;;;;;;10.39;96.56;99809.14;123914;1103;104217;-75
2024/02/06 09:12:23;;;;;;;10.33;3.17;;;;;;;10.55;95.65;99812.12;123635;1103;104660;-76
2024/02/06 09:15:01;;;;;;;7.05;3.40;;;;;;;10.74;96.17;99810.86;123857;1105;104348;-76
2024/02/06 09:17:40;;;;;;;7.93;3.53;;;;;;;10.97;95.88;99808.77;123643;1102;102753;-76
2024/02/06 09:20:22;;;;;;;7.23;3.50;;;;;;;11.20;95.94;99809.27;123660;1105;104181;-76
2024/02/06 09:22:59;;;;;;;9.93;3.60;;;;;;;11.43;95.58;99812.39;124044;1105;104184;-76
2024/02/06 09:25:35;;;;;;;9.30;3.77;;;;;;;11.63;95.83;99809.30;123813;1102;104374;-76
2024/02/06 09:28:07;;;;;;;11.30;3.65;;;;;;;11.79;96.11;99803.48;123706;1106;104393;-75
2024/02/06 09:30:44;;;;;;;6.55;3.30;;;;;;;11.92;95.43;99806.34;123932;1102;104207;-75
2024/02/06 09:33:28;;;;;;;10.20;3.30;;;;;;;12.08;94.99;99804.95;125900;1103;112611;-75
2024/02/06 09:35:59;;;;;;;10.50;3.60;;;;;;;12.23;94.11;99810.45;126270;1103;101772;-76
2024/02/06 09:38:31;;;;;;;8.57;3.27;;;;;;;12.37;94.79;99803.72;124890;1105;104373;-75
2024/02/06 09:41:07;;;;;;;8.57;3.23;;;;;;;12.50;94.19;99796.03;123828;1105;104383;-76
2024/02/06 09:43:45;;;;;;;8.60;3.10;;;;;;;12.61;93.85;99797.09;123665;1105;104307;-75
2024/02/06 09:46:17;;;;;;;6.55;3.20;;;;;;;12.70;94.16;99797.23;123813;1102;104248;-75
2024/02/06 09:48:48;;;;;;;7.57;3.40;;;;;;;12.77;93.76;99790.31;123767;1102;104243;-75
2024/02/06 09:51:21;;;;;;;9.57;2.97;;;;;;;12.85;93.65;99796.56;123577;1102;104313;-75
2024/02/06 09:53:58;;;;;;;7.45;3.17;;;;;;;12.93;92.55;99791.42;123507;1105;107174;-76
2024/02/06 09:56:32;;;;;;;10.40;3.70;;;;;;;12.98;92.23;99789.76;123765;1102;104277;-75
2024/02/06 09:59:05;;;;;;;14.70;3.50;;;;;;;13.04;92.05;99786.30;123817;1102;104283;-75
2024/02/06 10:01:43;;;;;;;10.60;4.03;;;;;;;13.13;91.81;99783.80;123640;1102;104236;-75
2024/02/06 10:04:20;;;;;;;11.30;3.13;;;;;;;13.19;91.10;99783.89;123908;1102;119405;-75
2024/02/06 10:06:52;;;;;;;7.83;3.00;;;;;;;13.20;90.03;99769.87;123754;1102;104176;-75
2024/02/06 10:09:25;;;;;;;6.53;3.03;;;;;;;13.20;90.74;99772.50;123790;1102;104251;-76
2024/02/06 10:11:58;;;;;;;6.10;2.90;;;;;;;13.17;89.32;99774.22;123887;1102;104454;-76
2024/02/06 10:14:30;;;;;;;11.18;3.20;;;;;;;13.13;89.55;99765.37;124813;1102;104284;-76
2024/02/06 10:17:02;;;;;;;10.10;3.57;;;;;;;13.09;88.94;99776.75;123795;1105;103171;-75
2024/02/06 10:19:36;;;;;;;10.50;3.23;;;;;;;13.04;88.59;99767.88;123908;1105;104067;-75
2024/02/06 10:22:08;;;;;;;;;;;;;;;13.00;85.21;99758.18;124271;1102;102125;-75
2024/02/06 10:24:39;;;;;;;9.00;3.30;;;;;;;12.95;87.62;99756.36;123609;1102;104229;-76
2024/02/06 10:27:12;;;;;;;10.77;3.27;;;;;;;12.98;87.56;99760.79;123850;1102;104248;-75
2024/02/06 10:29:43;;;;;;;7.43;3.40;;;;;;;13.04;87.72;99754.70;123790;1102;105764;-75
2024/02/06 10:32:21;;;;;;;7.27;3.40;;;;;;;13.10;87.34;99749.52;123916;1102;104281;-76
2024/02/06 10:35:03;;;;;;;8.50;3.50;;;;;;;13.17;87.31;99751.39;124170;1105;103091;-75
2024/02/06 10:37:40;;;;;;;11.47;3.40;;;;;;;13.20;85.98;99754.06;123986;1105;104340;-75
2024/02/06 10:40:13;;;;;;;11.67;3.40;;;;;;;13.23;86.17;99754.09;123719;1106;104639;-76
2024/02/06 10:42:52;;;;;;;9.63;3.33;;;;;;;13.26;87.06;99745.33;126242;1102;102622;-75
2024/02/06 10:45:24;;;;;;;10.37;3.60;;;;;;;13.30;86.58;99750.66;126062;1102;107061;-76
2024/02/06 10:48:08;;;;;;;7.83;3.03;;;;;;;13.32;84.07;99745.41;123898;1103;104235;-76
2024/02/06 10:50:42;;;;;;;7.63;2.93;;;;;;;13.36;85.36;99738.48;123809;1103;104278;-76
2024/02/06 10:53:14;;;;;;;11.93;3.40;;;;;;;13.37;84.07;99732.33;123824;1102;104261;-75
2024/02/06 10:55:47;;;;;;;8.80;3.33;;;;;;;13.39;84.12;99743.79;124012;1102;102823;-76
2024/02/06 10:58:25;;;;;;;7.53;3.10;;;;;;;13.40;84.60;99738.53;125318;1102;102578;-76
2024/02/06 11:00:57;;;;;;;7.83;3.00;;;;;;;13.42;83.49;99731.53;124036;1102;104204;-76
2024/02/06 11:03:29;;;;;;;11.50;3.30;;;;;;;13.45;84.53;99723.66;124062;1102;104278;-76
2024/02/06 11:06:07;;;;;;;10.35;3.40;;;;;;;13.47;84.09;99731.58;124071;1103;104275;-76
2024/02/06 11:08:40;;;;;;;8.07;3.00;;;;;;;13.45;83.66;99728.92;124038;1102;104232;-75
2024/02/06 11:11:13;;;;;;;12.57;3.70;;;;;;;13.44;82.76;99726.27;123926;1105;104280;-76
2024/02/06 11:13:50;;;;;;;12.93;3.77;;;;;;;13.46;82.83;99725.44;124098;1102;104200;-75
2024/02/06 11:16:24;;;;;;;9.23;3.47;;;;;;;13.49;82.77;99724.56;124171;1102;104275;-76
2024/02/06 11:18:59;;;;;;;;;;;;;;;13.46;80.82;99719.26;126209;1102;102883;-76
2024/02/06 11:21:38;;;;;;;9.67;3.03;;;;;;;13.46;81.03;99719.26;124576;1102;104248;-76
2024/02/06 11:24:11;;;;;;;7.43;2.90;;;;;;;13.46;81.91;99716.63;124096;1102;102577;-77
2024/02/06 11:26:43;;;;;;;9.90;3.20;;;;;;;13.46;81.11;99703.45;124018;1102;104266;-76
2024/02/06 11:29:15;;;;;;;7.23;3.20;;;;;;;13.46;79.89;99704.35;124217;1102;102463;-76
2024/02/06 11:31:49;;;;;;;8.13;3.47;;;;;;;13.43;80.14;99703.41;124216;1102;103491;-77
2024/02/06 11:34:22;;;;;;;10.58;3.27;;;;;;;13.42;79.18;99696.39;126075;1102;102979;-76
2024/02/06 11:36:58;;;;;;;10.70;3.17;;;;;;;13.39;79.78;99699.87;124388;1102;104176;-76
2024/02/06 11:39:33;;;;;;;7.60;2.73;;;;;;;13.42;79.60;99696.39;124026;1102;104216;-76
2024/02/06 11:42:04;;;;;;;11.03;3.13;;;;;;;13.43;79.57;99688.50;123938;1102;104207;-76
2024/02/06 11:44:36;;;;;;;10.97;2.97;;;;;;;13.44;78.33;99679.70;124116;1102;104216;-76